createdAt,value
2023-12-27T00:02:02.839Z,2.13
2023-12-27T00:04:30.958Z,1.80
2023-12-27T00:06:59.130Z,1.58
2023-12-27T00:09:27.260Z,1.90
2023-12-27T00:11:55.237Z,2.42
2023-12-27T00:14:23.841Z,1.55
2023-12-27T00:16:51.809Z,1.90
2023-12-27T00:19:25.779Z,1.95
2023-12-27T00:21:53.845Z,1.80
2023-12-27T00:24:21.869Z,1.77
2023-12-27T00:26:49.930Z,1.65
2023-12-27T00:29:17.987Z,1.50
2023-12-27T00:31:45.954Z,1.33
2023-12-27T00:34:16.601Z,2.00
2023-12-27T00:36:44.680Z,1.70
2023-12-27T00:39:12.703Z,1.38
2023-12-27T00:41:40.736Z,1.88
2023-12-27T00:44:08.894Z,2.47
2023-12-27T00:46:38.656Z,1.83
2023-12-27T00:49:07.069Z,1.98
2023-12-27T00:51:35.527Z,1.80
2023-12-27T00:54:03.631Z,1.48
2023-12-27T00:56:31.763Z,1.80
2023-12-27T00:59:00.345Z,1.80
2023-12-27T01:01:31.373Z,1.40
2023-12-27T01:03:59.801Z,1.95
2023-12-27T01:06:37.461Z,1.98
2023-12-27T01:09:06.346Z,1.45
2023-12-27T01:11:34.501Z,1.95
2023-12-27T01:14:03.406Z,1.95
2023-12-27T01:16:31.388Z,1.60
2023-12-27T01:19:00.465Z,1.83
2023-12-27T01:21:28.659Z,1.70
2023-12-27T01:23:57.095Z,1.50
2023-12-27T01:26:25.108Z,2.60
2023-12-27T01:28:53.183Z,1.73
2023-12-27T01:31:29.578Z,1.50
2023-12-27T01:34:08.218Z,1.45
2023-12-27T01:36:40.607Z,2.03
2023-12-27T01:39:10.109Z,1.42
2023-12-27T01:41:39.084Z,1.60
2023-12-27T01:44:07.067Z,1.67
2023-12-27T01:46:36.672Z,2.17
2023-12-27T01:49:04.986Z,1.85
2023-12-27T01:51:33.244Z,1.95
2023-12-27T01:54:04.346Z,1.73
2023-12-27T01:56:32.371Z,1.98
2023-12-27T01:59:00.841Z,1.75
2023-12-27T02:01:29.940Z,1.40
2023-12-27T02:03:58.170Z,1.73
2023-12-27T02:06:26.485Z,1.60
2023-12-27T02:08:54.692Z,1.40
2023-12-27T02:11:22.778Z,1.90
2023-12-27T02:13:50.735Z,1.95
2023-12-27T02:16:21.711Z,1.50
2023-12-27T02:18:50.611Z,1.58
2023-12-27T02:21:19.114Z,1.80
2023-12-27T02:23:48.962Z,1.98
2023-12-27T02:26:17.484Z,1.95
2023-12-27T02:28:45.468Z,3.07
2023-12-27T02:31:13.663Z,1.37
2023-12-27T02:33:45.332Z,1.73
2023-12-27T02:36:13.623Z,2.25
2023-12-27T02:38:41.654Z,1.48
2023-12-27T02:41:09.657Z,1.73
2023-12-27T02:43:37.582Z,1.98
2023-12-27T02:46:05.590Z,1.77
2023-12-27T02:48:33.743Z,1.63
2023-12-27T02:51:01.811Z,2.37
2023-12-27T02:53:29.830Z,1.73
2023-12-27T02:55:58.814Z,2.10
2023-12-27T02:58:26.821Z,3.23
2023-12-27T03:00:54.952Z,3.40
2023-12-27T03:03:23.704Z,1.83
2023-12-27T03:05:53.900Z,1.67
2023-12-27T03:08:21.868Z,1.97
2023-12-27T03:10:51.991Z,1.87
2023-12-27T03:13:20.005Z,1.35
2023-12-27T03:15:49.301Z,1.90
2023-12-27T03:18:17.492Z,1.83
2023-12-27T03:20:45.526Z,1.47
2023-12-27T03:23:14.864Z,1.57
2023-12-27T03:25:42.852Z,1.83
2023-12-27T03:28:10.866Z,1.67
2023-12-27T03:30:39.116Z,1.77
2023-12-27T03:33:07.327Z,1.47
2023-12-27T03:35:40.585Z,1.63
2023-12-27T03:38:08.599Z,1.70
2023-12-27T03:40:37.665Z,1.80
2023-12-27T03:43:05.704Z,1.90
2023-12-27T03:45:34.908Z,1.57
2023-12-27T03:48:03.453Z,2.13
2023-12-27T03:50:31.855Z,2.77
2023-12-27T03:53:00.198Z,1.60
2023-12-27T03:55:28.503Z,2.10
2023-12-27T03:58:00.193Z,1.97
2023-12-27T04:00:28.625Z,2.67
2023-12-27T04:02:56.663Z,1.67
2023-12-27T04:05:25.008Z,2.47
2023-12-27T04:07:53.027Z,1.43
2023-12-27T04:10:20.986Z,1.70
2023-12-27T04:12:49.114Z,1.63
2023-12-27T04:15:17.210Z,1.75
2023-12-27T04:17:46.301Z,2.00
2023-12-27T04:20:15.724Z,2.07
2023-12-27T04:22:43.755Z,1.70
2023-12-27T04:25:12.765Z,2.33
2023-12-27T04:27:40.918Z,1.70
2023-12-27T04:30:09.528Z,1.97
2023-12-27T04:32:37.766Z,2.00
2023-12-27T04:35:06.308Z,3.77
2023-12-27T04:37:34.274Z,1.40
2023-12-27T04:40:02.407Z,1.70
2023-12-27T04:42:30.459Z,1.77
2023-12-27T04:45:23.450Z,1.80
2023-12-27T04:47:51.707Z,1.90
2023-12-27T04:50:20.010Z,1.83
2023-12-27T04:52:47.995Z,1.70
2023-12-27T04:55:15.980Z,1.87
2023-12-27T04:57:43.978Z,1.57
2023-12-27T05:00:26.138Z,1.87
2023-12-27T05:02:54.798Z,2.13
2023-12-27T05:05:22.885Z,1.87
2023-12-27T05:07:51.238Z,2.13
2023-12-27T05:10:19.325Z,1.73
2023-12-27T05:12:47.315Z,1.97
2023-12-27T05:15:19.014Z,2.03
2023-12-27T05:17:47.730Z,1.50
2023-12-27T05:20:15.858Z,2.73
2023-12-27T05:22:45.620Z,1.48
2023-12-27T05:25:13.691Z,1.70
2023-12-27T05:27:41.661Z,2.40
2023-12-27T05:30:11.015Z,1.75
2023-12-27T05:32:39.385Z,1.50
2023-12-27T05:35:10.339Z,2.03
2023-12-27T05:37:38.509Z,2.45
2023-12-27T05:40:07.135Z,1.50
2023-12-27T05:42:35.215Z,1.67
2023-12-27T05:45:03.393Z,2.05
2023-12-27T05:47:31.413Z,2.15
2023-12-27T05:49:59.491Z,2.00
2023-12-27T05:52:27.437Z,1.80
2023-12-27T05:54:55.449Z,2.70
2023-12-27T05:57:23.489Z,1.70
2023-12-27T05:59:52.796Z,1.83
2023-12-27T06:02:20.880Z,1.63
2023-12-27T06:04:57.073Z,1.63
2023-12-27T06:07:25.237Z,2.53
2023-12-27T06:09:53.413Z,1.93
2023-12-27T06:12:21.610Z,1.90
2023-12-27T06:14:50.137Z,1.75
2023-12-27T06:17:18.105Z,2.20
2023-12-27T06:19:46.097Z,1.83
2023-12-27T06:22:14.131Z,1.30
2023-12-27T06:25:07.516Z,2.00
2023-12-27T06:27:35.645Z,1.37
2023-12-27T06:30:04.148Z,1.50
2023-12-27T06:32:32.625Z,2.10
2023-12-27T06:35:00.617Z,1.80
2023-12-27T06:37:28.632Z,2.03
2023-12-27T06:39:57.642Z,1.80
2023-12-27T06:42:25.789Z,2.07
2023-12-27T06:44:53.868Z,3.20
2023-12-27T06:47:21.899Z,2.90
2023-12-27T06:49:50.050Z,2.67
2023-12-27T06:52:18.163Z,2.80
2023-12-27T06:54:46.167Z,3.40
2023-12-27T06:57:14.319Z,2.53
2023-12-27T06:59:55.271Z,3.33
2023-12-27T07:02:23.439Z,2.60
2023-12-27T07:04:51.570Z,2.70
2023-12-27T07:07:19.537Z,2.40
2023-12-27T07:09:49.692Z,2.60
2023-12-27T07:12:23.880Z,2.55
2023-12-27T07:14:52.993Z,3.53
2023-12-27T07:17:22.356Z,2.80
2023-12-27T07:19:54.593Z,3.15
2023-12-27T07:22:24.617Z,2.80
2023-12-27T07:25:00.948Z,4.15
2023-12-27T07:27:29.217Z,3.75
2023-12-27T07:30:22.492Z,3.65
2023-12-27T07:32:50.664Z,4.63
2023-12-27T07:35:18.841Z,4.47
2023-12-27T07:37:47.603Z,3.35
2023-12-27T07:40:16.515Z,3.80
2023-12-27T07:42:44.910Z,4.10
2023-12-27T07:45:13.341Z,3.92
2023-12-27T07:47:41.400Z,4.57
2023-12-27T07:50:09.746Z,5.18
2023-12-27T07:52:39.169Z,3.58
2023-12-27T07:55:07.633Z,4.35
2023-12-27T07:57:35.673Z,4.10
2023-12-27T08:00:04.121Z,5.13
2023-12-27T08:02:40.159Z,4.20
2023-12-27T08:05:08.574Z,4.38
2023-12-27T08:07:36.652Z,4.53
2023-12-27T08:10:08.260Z,4.03
2023-12-27T08:12:36.385Z,5.28
2023-12-27T08:15:05.018Z,5.35
2023-12-27T08:18:01.441Z,4.40
2023-12-27T08:20:29.623Z,5.10
2023-12-27T08:22:59.605Z,5.20
2023-12-27T08:25:27.693Z,3.85
2023-12-27T08:27:55.989Z,5.57
2023-12-27T08:30:24.571Z,5.65
2023-12-27T08:32:52.683Z,3.83
2023-12-27T08:35:20.798Z,4.28
2023-12-27T08:37:52.878Z,4.53
2023-12-27T08:40:21.406Z,4.53
2023-12-27T08:42:49.382Z,4.68
2023-12-27T08:45:17.536Z,4.28
2023-12-27T08:47:53.943Z,3.53
2023-12-27T08:50:22.072Z,3.50
2023-12-27T08:52:55.236Z,4.20
2023-12-27T08:55:23.592Z,3.92
2023-12-27T08:57:57.637Z,4.68
2023-12-27T09:00:25.929Z,4.63
2023-12-27T09:02:53.960Z,4.10
2023-12-27T09:05:22.790Z,4.20
2023-12-27T09:07:50.896Z,4.80
2023-12-27T09:10:18.840Z,3.88
2023-12-27T09:12:46.932Z,4.20
2023-12-27T09:15:15.438Z,3.72
2023-12-27T09:17:43.564Z,3.78
2023-12-27T09:20:12.947Z,3.85
2023-12-27T09:22:41.010Z,4.57
2023-12-27T09:25:15.694Z,4.50
2023-12-27T09:27:50.023Z,4.20
2023-12-27T09:30:43.034Z,3.38
2023-12-27T09:33:11.784Z,3.03
2023-12-27T09:35:41.902Z,3.42
2023-12-27T09:38:09.905Z,4.00
2023-12-27T09:40:37.912Z,5.00
2023-12-27T09:43:08.118Z,4.38
2023-12-27T09:45:39.972Z,4.03
2023-12-27T09:48:33.595Z,4.57
2023-12-27T09:51:01.849Z,3.75
2023-12-27T09:53:31.143Z,4.10
2023-12-27T09:56:00.362Z,2.95
2023-12-27T09:58:29.499Z,4.40
2023-12-27T10:00:59.921Z,3.88
2023-12-27T10:03:41.548Z,4.00
2023-12-27T10:08:58.783Z,4.40
2023-12-27T10:11:26.946Z,3.45
2023-12-27T10:13:55.058Z,3.95
2023-12-27T10:16:24.106Z,5.00
2023-12-27T10:18:52.199Z,4.60
2023-12-27T10:21:20.371Z,4.47
2023-12-27T10:23:48.881Z,2.85
2023-12-27T10:26:16.896Z,2.85
2023-12-27T10:28:45.786Z,3.90
2023-12-27T10:31:14.055Z,3.97
2023-12-27T10:33:44.159Z,3.30
2023-12-27T10:36:12.400Z,3.35
2023-12-27T10:38:41.178Z,3.83
2023-12-27T10:41:09.571Z,3.85
2023-12-27T10:44:05.928Z,4.32
2023-12-27T10:46:39.333Z,3.67
2023-12-27T10:49:07.541Z,3.67
2023-12-27T10:51:40.205Z,3.78
2023-12-27T10:54:08.796Z,4.43
2023-12-27T10:56:41.109Z,3.70
2023-12-27T10:59:12.229Z,4.07
2023-12-27T11:01:42.520Z,3.03
2023-12-27T11:04:12.415Z,3.58
2023-12-27T11:06:41.083Z,3.15
2023-12-27T11:09:10.497Z,4.05
2023-12-27T11:11:44.604Z,4.50
2023-12-27T11:14:12.670Z,4.30
2023-12-27T11:16:41.730Z,3.25
2023-12-27T11:19:15.081Z,4.45
2023-12-27T11:22:12.910Z,3.55
2023-12-27T11:24:41.473Z,4.07
2023-12-27T11:27:09.602Z,4.38
2023-12-27T11:29:40.011Z,3.90
2023-12-27T11:32:11.464Z,3.20
2023-12-27T11:34:39.822Z,3.67
2023-12-27T11:37:18.169Z,3.67
2023-12-27T11:39:53.425Z,2.85
2023-12-27T11:42:23.771Z,3.40
2023-12-27T11:44:58.166Z,3.85
2023-12-27T11:47:29.067Z,3.58
2023-12-27T11:50:10.628Z,2.88
2023-12-27T11:55:25.433Z,3.92
2023-12-27T11:58:00.070Z,3.65
2023-12-27T12:00:31.764Z,4.22
2023-12-27T12:03:04.856Z,3.80
2023-12-27T12:06:12.922Z,3.45
2023-12-27T12:08:47.329Z,3.35
2023-12-27T12:11:16.906Z,3.85
2023-12-27T12:13:46.389Z,3.72
2023-12-27T12:16:42.258Z,3.92
2023-12-27T12:19:16.017Z,3.42
2023-12-27T12:21:44.475Z,3.72
2023-12-27T12:24:38.452Z,3.60
2023-12-27T12:27:06.965Z,4.03
2023-12-27T12:29:56.325Z,3.92
2023-12-27T12:32:26.421Z,3.92
2023-12-27T12:34:54.531Z,3.35
2023-12-27T12:37:24.824Z,2.90
2023-12-27T12:39:52.897Z,3.08
2023-12-27T12:42:21.415Z,4.13
2023-12-27T12:45:09.497Z,3.50
2023-12-27T12:47:40.451Z,3.00
2023-12-27T12:50:18.439Z,3.80
2023-12-27T12:52:53.879Z,3.40
2023-12-27T12:55:23.970Z,3.55
2023-12-27T12:57:53.165Z,3.58
2023-12-27T13:00:51.973Z,3.17
2023-12-27T13:03:21.914Z,3.47
2023-12-27T13:05:53.692Z,3.30
2023-12-27T13:08:28.005Z,3.42
2023-12-27T13:10:56.263Z,3.55
2023-12-27T13:13:35.418Z,3.05
2023-12-27T13:16:28.753Z,3.17
2023-12-27T13:19:01.389Z,2.72
2023-12-27T13:21:33.110Z,3.90
2023-12-27T13:24:27.984Z,3.88
2023-12-27T13:26:59.672Z,3.53
2023-12-27T13:29:27.679Z,3.28
2023-12-27T13:31:56.446Z,3.90
2023-12-27T13:34:24.707Z,3.58
2023-12-27T13:36:56.666Z,3.22
2023-12-27T13:39:24.743Z,3.17
2023-12-27T13:41:53.231Z,3.72
2023-12-27T13:44:39.298Z,2.97
2023-12-27T13:47:09.354Z,3.47
2023-12-27T13:49:59.773Z,3.83
2023-12-27T13:52:29.284Z,3.95
2023-12-27T13:54:58.138Z,3.40
2023-12-27T13:57:27.423Z,3.38
2023-12-27T13:59:55.447Z,3.45
2023-12-27T14:02:23.678Z,3.75
2023-12-27T14:04:51.641Z,4.30
2023-12-27T14:07:19.571Z,3.08
2023-12-27T14:09:47.699Z,3.22
2023-12-27T14:12:15.856Z,3.30
2023-12-27T14:14:44.798Z,3.10
2023-12-27T14:17:12.776Z,3.40
2023-12-27T14:19:41.959Z,3.67
2023-12-27T14:22:14.118Z,3.78
2023-12-27T14:24:42.128Z,4.38
2023-12-27T14:27:10.265Z,3.63
2023-12-27T14:29:38.794Z,3.33
2023-12-27T14:32:07.107Z,2.67
2023-12-27T14:34:50.551Z,2.72
2023-12-27T14:37:18.667Z,2.97
2023-12-27T14:39:46.772Z,3.38
2023-12-27T14:42:14.952Z,2.38
2023-12-27T14:44:46.054Z,2.70
2023-12-27T14:47:14.173Z,2.92
2023-12-27T14:50:07.732Z,3.25
2023-12-27T14:52:37.600Z,2.50
2023-12-27T14:55:06.808Z,2.20
2023-12-27T14:58:01.376Z,2.53
2023-12-27T15:00:29.877Z,3.10
2023-12-27T15:03:25.617Z,2.55
2023-12-27T15:05:56.799Z,2.72
2023-12-27T15:08:26.197Z,2.85
2023-12-27T15:10:57.292Z,2.72
2023-12-27T15:13:28.875Z,3.15
2023-12-27T15:15:56.956Z,2.47
2023-12-27T15:18:27.098Z,2.30
2023-12-27T15:21:05.762Z,2.65
2023-12-27T15:23:34.498Z,2.55
2023-12-27T15:26:02.532Z,3.15
2023-12-27T15:28:33.086Z,4.00
2023-12-27T15:31:01.170Z,2.90
2023-12-27T15:33:37.556Z,2.83
2023-12-27T15:36:05.924Z,2.30
2023-12-27T15:38:58.780Z,2.65
2023-12-27T15:41:29.462Z,2.58
2023-12-27T15:44:07.878Z,2.13
2023-12-27T15:46:45.921Z,2.20
2023-12-27T15:49:14.490Z,2.85
2023-12-27T15:51:59.615Z,2.60
2023-12-27T15:54:52.806Z,2.28
2023-12-27T15:57:22.987Z,2.83
2023-12-27T16:00:15.883Z,2.67
2023-12-27T16:02:47.354Z,2.75
2023-12-27T16:08:18.703Z,1.98
2023-12-27T16:10:51.013Z,2.40
2023-12-27T16:13:19.123Z,2.33
2023-12-27T16:15:48.170Z,2.72
2023-12-27T16:18:23.524Z,2.10
2023-12-27T16:20:53.135Z,1.90
2023-12-27T16:23:36.693Z,2.20
2023-12-27T16:26:13.863Z,1.60
2023-12-27T16:28:43.476Z,1.65
2023-12-27T16:31:12.007Z,1.88
2023-12-27T16:33:40.590Z,2.35
2023-12-27T16:36:12.447Z,2.67
2023-12-27T16:38:43.743Z,2.40
2023-12-27T16:41:11.862Z,2.40
2023-12-27T16:43:47.725Z,2.40
2023-12-27T16:46:20.238Z,2.30
2023-12-27T16:48:57.443Z,2.15
2023-12-27T16:51:36.212Z,2.75
2023-12-27T16:54:08.305Z,1.90
2023-12-27T16:56:36.341Z,2.13
2023-12-27T16:59:14.181Z,2.08
2023-12-27T17:01:46.385Z,1.27
2023-12-27T17:04:21.784Z,1.65
2023-12-27T17:07:06.219Z,1.60
2023-12-27T17:09:35.356Z,1.67
2023-12-27T17:12:04.834Z,1.73
2023-12-27T17:14:40.848Z,1.75
2023-12-27T17:17:15.686Z,1.70
2023-12-27T17:20:11.938Z,1.80
2023-12-27T17:22:42.830Z,2.20
2023-12-27T17:25:11.670Z,1.83
2023-12-27T17:27:40.446Z,2.20
2023-12-27T17:30:08.705Z,2.00
2023-12-27T17:32:42.927Z,2.05
2023-12-27T17:35:40.998Z,1.52
2023-12-27T17:38:13.485Z,2.15
2023-12-27T17:40:45.607Z,2.53
2023-12-27T17:43:13.854Z,1.60
2023-12-27T17:45:42.280Z,1.95
2023-12-27T17:48:13.223Z,2.55
2023-12-27T17:50:47.568Z,2.20
2023-12-27T17:53:15.852Z,2.15
2023-12-27T17:55:47.567Z,4.20
2023-12-27T17:58:15.644Z,1.75
2023-12-27T18:00:57.108Z,2.35
2023-12-27T18:03:53.027Z,3.17
2023-12-27T18:07:08.961Z,3.20
2023-12-27T18:12:59.111Z,2.28
2023-12-27T18:16:02.213Z,1.70
2023-12-27T18:18:30.504Z,2.33
2023-12-27T18:21:23.356Z,1.70
2023-12-27T18:23:51.462Z,1.60
2023-12-27T18:31:11.032Z,1.52
2023-12-27T18:33:48.677Z,1.95
2023-12-27T18:37:40.826Z,1.95
2023-12-27T18:40:12.574Z,1.30
2023-12-27T18:42:47.457Z,1.60
2023-12-27T18:45:17.200Z,1.83
2023-12-27T18:48:13.766Z,1.60
2023-12-27T18:54:02.836Z,1.92
2023-12-27T18:56:37.085Z,1.50
2023-12-27T18:59:05.767Z,1.70
2023-12-27T19:01:40.231Z,2.10
2023-12-27T19:05:35.393Z,2.00
2023-12-27T19:08:04.076Z,1.98
2023-12-27T19:10:35.073Z,1.77
2023-12-27T19:13:04.257Z,2.05
2023-12-27T19:15:41.398Z,1.50
2023-12-27T19:18:27.917Z,1.50
2023-12-27T19:21:01.708Z,1.52
2023-12-27T19:23:30.825Z,1.40
2023-12-27T19:25:58.854Z,1.75
2023-12-27T19:31:14.471Z,1.05
2023-12-27T19:33:45.725Z,1.30
2023-12-27T19:36:14.439Z,1.52
2023-12-27T19:39:11.474Z,1.50
2023-12-27T19:42:11.115Z,1.50
2023-12-27T19:44:39.831Z,1.90
2023-12-27T19:47:34.396Z,1.65
2023-12-27T19:50:24.213Z,1.67
2023-12-27T19:52:56.258Z,2.00
2023-12-27T19:55:30.442Z,1.80
2023-12-27T19:58:01.297Z,2.08
2023-12-27T20:01:03.191Z,1.65
2023-12-27T20:03:45.260Z,1.75
2023-12-27T20:06:43.856Z,1.52
2023-12-27T20:09:25.845Z,1.27
2023-12-27T20:14:43.494Z,1.33
2023-12-27T20:17:14.621Z,1.67
2023-12-27T20:19:51.105Z,1.73
2023-12-27T20:22:25.311Z,1.73
2023-12-27T20:24:56.769Z,1.48
2023-12-27T20:27:46.367Z,1.40
2023-12-27T20:31:05.362Z,1.50
2023-12-27T20:33:36.783Z,1.45
2023-12-27T20:39:29.937Z,1.50
2023-12-27T20:42:07.629Z,1.33
2023-12-27T20:44:39.048Z,1.40
2023-12-27T20:50:26.604Z,1.35
2023-12-27T20:53:04.162Z,1.30
2023-12-27T20:55:45.092Z,1.80
2023-12-27T20:58:16.357Z,1.30
2023-12-27T21:04:38.208Z,1.52
2023-12-27T21:07:06.323Z,1.23
2023-12-27T21:09:40.319Z,1.30
2023-12-27T21:12:12.112Z,1.38
2023-12-27T21:14:48.975Z,1.70
2023-12-27T21:17:17.002Z,1.50
2023-12-27T21:20:09.643Z,1.30
2023-12-27T21:23:02.701Z,1.10
2023-12-27T21:25:59.509Z,1.60
2023-12-27T21:31:17.321Z,1.30
2023-12-27T21:34:20.179Z,1.25
2023-12-27T21:36:49.054Z,1.30
2023-12-27T21:40:08.107Z,1.15
2023-12-27T21:42:44.957Z,1.27
2023-12-27T21:45:16.821Z,0.95
2023-12-27T21:47:47.379Z,1.55
2023-12-27T21:50:15.465Z,1.40
2023-12-27T21:53:04.780Z,1.60
2023-12-27T21:55:37.062Z,1.10
2023-12-27T22:01:17.855Z,1.10
2023-12-27T22:03:52.450Z,1.15
2023-12-27T22:06:26.556Z,1.00
2023-12-27T22:08:57.648Z,1.25
2023-12-27T22:11:25.628Z,1.25
2023-12-27T22:13:53.598Z,1.25
2023-12-27T22:16:23.731Z,1.52
2023-12-27T22:18:52.236Z,1.30
2023-12-27T22:21:31.050Z,1.13
2023-12-27T22:23:59.203Z,1.20
2023-12-27T22:26:27.285Z,1.40
2023-12-27T22:28:55.383Z,1.30
2023-12-27T22:31:25.984Z,1.20
2023-12-27T22:34:46.962Z,1.00
2023-12-27T22:37:27.110Z,1.10
2023-12-27T22:40:55.547Z,1.60
2023-12-27T22:43:23.651Z,1.10
2023-12-27T22:46:16.595Z,1.13
2023-12-27T22:48:44.766Z,1.20
2023-12-27T22:51:36.816Z,1.35
2023-12-27T22:54:04.961Z,1.40
2023-12-27T22:56:35.497Z,1.33
2023-12-27T22:59:08.742Z,1.27
2023-12-27T23:01:47.310Z,1.20
2023-12-27T23:04:18.038Z,1.38
2023-12-27T23:06:46.165Z,1.42
2023-12-27T23:09:39.461Z,1.30
2023-12-27T23:12:31.187Z,1.08
2023-12-27T23:15:28.297Z,1.00
2023-12-27T23:18:12.541Z,1.20
2023-12-27T23:20:45.443Z,1.20
2023-12-27T23:23:17.959Z,1.00
2023-12-27T23:25:49.817Z,1.15
2023-12-27T23:29:17.015Z,1.00
2023-12-27T23:31:49.164Z,0.93
2023-12-27T23:34:23.805Z,1.00
2023-12-27T23:37:10.278Z,1.08
2023-12-27T23:39:38.557Z,1.10
2023-12-27T23:42:19.900Z,1.30
2023-12-27T23:47:25.092Z,1.50
2023-12-27T23:49:55.833Z,1.23
2023-12-27T23:55:14.119Z,1.17
2023-12-27T23:57:42.252Z,1.50
